createdAt,value
2016-07-20T00:00:23.336Z,27.03
2016-07-20T00:01:23.344Z,26.99
2016-07-20T00:02:23.362Z,27.09
2016-07-20T00:03:23.355Z,26.99
2016-07-20T00:04:24.071Z,27.02
2016-07-20T00:05:22.677Z,27.02
2016-07-20T00:06:24.087Z,26.97
2016-07-20T00:07:25.197Z,26.97
2016-07-20T00:08:23.393Z,27.03
2016-07-20T00:09:24.710Z,26.91
2016-07-20T00:10:22.701Z,26.97
2016-07-20T00:11:22.711Z,27.02
2016-07-20T00:12:23.435Z,26.99
2016-07-20T00:13:23.427Z,26.99
2016-07-20T00:14:24.148Z,27.02
2016-07-20T00:15:24.150Z,26.99
2016-07-20T00:16:23.462Z,27.06
2016-07-20T00:17:23.462Z,26.95
2016-07-20T00:18:24.977Z,26.99
2016-07-20T00:19:22.769Z,26.99
2016-07-20T00:20:23.930Z,26.97
2016-07-20T00:21:24.196Z,26.91
2016-07-20T00:22:24.207Z,27
2016-07-20T00:23:24.216Z,27.02
2016-07-20T00:24:24.219Z,27
2016-07-20T00:25:23.516Z,26.92
2016-07-20T00:26:24.233Z,26.99
2016-07-20T00:27:23.531Z,27
2016-07-20T00:28:22.831Z,26.97
2016-07-20T00:29:24.047Z,26.97
2016-07-20T00:30:23.556Z,26.92
2016-07-20T00:31:23.808Z,26.94
2016-07-20T00:32:23.569Z,26.88
2016-07-20T00:33:22.870Z,26.95
2016-07-20T00:34:23.585Z,26.97
2016-07-20T00:35:23.589Z,26.95
2016-07-20T00:36:23.602Z,26.97
2016-07-20T00:37:24.315Z,26.91
2016-07-20T00:38:22.905Z,26.97
2016-07-20T00:39:22.915Z,26.97
2016-07-20T00:40:24.155Z,26.94
2016-07-20T00:41:24.345Z,26.89
2016-07-20T00:42:23.936Z,26.95
2016-07-20T00:43:24.356Z,26.89
2016-07-20T00:44:23.660Z,26.84
2016-07-20T00:45:23.663Z,26.87
2016-07-20T00:46:23.673Z,26.87
2016-07-20T00:47:24.436Z,26.89
2016-07-20T00:48:23.685Z,26.88
2016-07-20T00:49:24.401Z,27.02
2016-07-20T00:50:23.706Z,26.92
2016-07-20T00:51:24.828Z,26.89
2016-07-20T00:52:23.717Z,26.94
2016-07-20T00:53:23.873Z,26.88
2016-07-20T00:54:23.730Z,26.85
2016-07-20T00:55:23.736Z,26.97
2016-07-20T00:56:24.451Z,26.89
2016-07-20T00:57:23.751Z,26.91
2016-07-20T00:58:23.763Z,26.95
2016-07-20T00:59:23.766Z,26.89
2016-07-20T01:00:23.770Z,26.91
2016-07-20T01:01:23.780Z,26.89
2016-07-20T01:02:23.077Z,26.88
2016-07-20T01:03:23.087Z,26.89
2016-07-20T01:04:24.054Z,26.85
2016-07-20T01:05:24.522Z,26.87
2016-07-20T01:06:24.525Z,26.81
2016-07-20T01:07:24.531Z,26.92
2016-07-20T01:08:24.536Z,26.87
2016-07-20T01:09:23.840Z,26.85
2016-07-20T01:10:24.552Z,26.82
2016-07-20T01:11:24.560Z,26.88
2016-07-20T01:12:23.863Z,26.82
2016-07-20T01:13:24.920Z,26.88
2016-07-20T01:14:24.582Z,26.85
2016-07-20T01:15:23.772Z,26.88
2016-07-20T01:16:24.606Z,26.87
2016-07-20T01:17:23.894Z,26.91
2016-07-20T01:18:24.614Z,26.8
2016-07-20T01:19:23.912Z,26.88
2016-07-20T01:20:23.914Z,26.84
2016-07-20T01:21:23.219Z,26.88
2016-07-20T01:22:24.646Z,26.87
2016-07-20T01:23:23.942Z,26.88
2016-07-20T01:24:38.121Z,26.81
2016-07-20T01:25:23.951Z,26.89
2016-07-20T01:26:25.607Z,26.84
2016-07-20T01:27:23.968Z,26.84
2016-07-20T01:28:23.277Z,26.87
2016-07-20T01:29:23.273Z,26.87
2016-07-20T01:30:23.990Z,26.82
2016-07-20T01:31:24.706Z,26.82
2016-07-20T01:32:24.714Z,26.84
2016-07-20T01:33:24.012Z,26.87
2016-07-20T01:34:24.015Z,26.82
2016-07-20T01:35:24.738Z,26.84
2016-07-20T01:36:23.328Z,26.85
2016-07-20T01:37:25.491Z,26.77
2016-07-20T01:38:24.048Z,26.87
2016-07-20T01:39:24.056Z,26.87
2016-07-20T01:40:24.068Z,26.82
2016-07-20T01:41:24.780Z,26.84
2016-07-20T01:42:24.789Z,26.81
2016-07-20T01:43:24.792Z,26.87
2016-07-20T01:44:24.798Z,26.87
2016-07-20T01:45:24.100Z,26.88
2016-07-20T01:46:24.812Z,26.8
2016-07-20T01:47:23.420Z,26.87
2016-07-20T01:48:25.602Z,26.85
2016-07-20T01:49:24.129Z,26.94
2016-07-20T01:50:24.138Z,26.91
2016-07-20T01:51:23.482Z,26.88
2016-07-20T01:52:24.857Z,26.87
2016-07-20T01:53:24.155Z,26.89
2016-07-20T01:54:24.876Z,26.85
2016-07-20T01:55:24.172Z,26.85
2016-07-20T01:56:24.179Z,26.95
2016-07-20T01:57:24.637Z,26.87
2016-07-20T01:58:24.190Z,26.89
2016-07-20T01:59:24.201Z,26.87
2016-07-20T02:00:23.501Z,26.87
2016-07-20T02:01:24.924Z,26.84
2016-07-20T02:02:24.221Z,26.95
2016-07-20T02:03:24.231Z,26.85
2016-07-20T02:04:24.944Z,26.89
2016-07-20T02:05:24.949Z,26.92
2016-07-20T02:06:24.250Z,26.94
2016-07-20T02:07:23.560Z,26.88
2016-07-20T02:08:23.807Z,26.91
2016-07-20T02:09:24.271Z,26.94
2016-07-20T02:10:24.279Z,26.82
2016-07-20T02:11:24.991Z,26.81
2016-07-20T02:12:24.303Z,26.88
2016-07-20T02:13:24.301Z,26.92
2016-07-20T02:14:24.307Z,26.87
2016-07-20T02:15:25.022Z,26.95
2016-07-20T02:16:24.322Z,26.91
2016-07-20T02:17:24.326Z,26.88
2016-07-20T02:18:24.339Z,26.82
2016-07-20T02:19:23.637Z,26.87
2016-07-20T02:20:25.058Z,26.89
2016-07-20T02:21:25.459Z,26.95
2016-07-20T02:22:25.072Z,26.85
2016-07-20T02:23:25.076Z,26.87
2016-07-20T02:24:39.255Z,26.85
2016-07-20T02:25:24.392Z,26.85
2016-07-20T02:26:24.389Z,26.87
2016-07-20T02:27:25.106Z,26.85
2016-07-20T02:28:24.407Z,26.82
2016-07-20T02:29:24.419Z,26.81
2016-07-20T02:30:25.129Z,26.81
2016-07-20T02:31:25.132Z,26.72
2016-07-20T02:32:24.434Z,26.85
2016-07-20T02:33:24.442Z,26.85
2016-07-20T02:34:24.449Z,26.81
2016-07-20T02:35:23.749Z,26.72
2016-07-20T02:36:23.753Z,26.84
2016-07-20T02:37:23.771Z,26.81
2016-07-20T02:38:24.478Z,26.84
2016-07-20T02:39:24.483Z,26.81
2016-07-20T02:40:23.785Z,26.76
2016-07-20T02:41:24.748Z,26.81
2016-07-20T02:42:23.798Z,26.73
2016-07-20T02:43:25.636Z,26.84
2016-07-20T02:44:25.227Z,26.8
2016-07-20T02:45:24.529Z,26.85
2016-07-20T02:46:23.830Z,26.82
2016-07-20T02:47:25.262Z,26.81
2016-07-20T02:48:23.839Z,26.82
2016-07-20T02:49:24.554Z,26.82
2016-07-20T02:50:25.322Z,26.8
2016-07-20T02:51:23.915Z,26.75
2016-07-20T02:52:24.581Z,26.8
2016-07-20T02:53:23.886Z,26.77
2016-07-20T02:54:39.414Z,26.81
2016-07-20T02:55:25.307Z,26.8
2016-07-20T02:56:24.606Z,26.87
2016-07-20T02:57:24.621Z,26.72
2016-07-20T02:58:24.620Z,26.81
2016-07-20T02:59:24.626Z,26.77
2016-07-20T03:00:24.638Z,26.8
2016-07-20T03:01:24.641Z,26.75
2016-07-20T03:02:24.649Z,26.82
2016-07-20T03:03:25.220Z,26.84
2016-07-20T03:04:25.369Z,26.85
2016-07-20T03:05:24.673Z,26.84
2016-07-20T03:06:23.971Z,26.87
2016-07-20T03:07:25.391Z,26.82
2016-07-20T03:08:25.406Z,26.82
2016-07-20T03:09:24.701Z,26.8
2016-07-20T03:10:24.709Z,26.8
2016-07-20T03:11:24.714Z,26.73
2016-07-20T03:12:25.429Z,26.84
2016-07-20T03:13:24.022Z,26.87
2016-07-20T03:14:24.737Z,26.87
2016-07-20T03:15:25.448Z,26.85
2016-07-20T03:16:25.964Z,26.81
2016-07-20T03:17:24.758Z,26.82
2016-07-20T03:18:24.763Z,26.76
2016-07-20T03:19:24.767Z,26.8
2016-07-20T03:20:24.072Z,26.8
2016-07-20T03:21:25.503Z,26.8
2016-07-20T03:22:25.498Z,26.84
2016-07-20T03:23:24.094Z,26.8
2016-07-20T03:24:24.097Z,26.8
2016-07-20T03:25:25.016Z,26.84
2016-07-20T03:26:24.111Z,26.76
2016-07-20T03:27:24.826Z,26.75
2016-07-20T03:28:24.835Z,26.87
2016-07-20T03:29:25.549Z,26.82
2016-07-20T03:30:24.857Z,26.77
2016-07-20T03:31:24.149Z,26.82
2016-07-20T03:32:25.568Z,26.81
2016-07-20T03:33:24.869Z,26.73
2016-07-20T03:34:24.877Z,26.85
2016-07-20T03:35:24.892Z,26.77
2016-07-20T03:36:24.895Z,26.84
2016-07-20T03:37:24.899Z,26.76
2016-07-20T03:38:25.835Z,26.8
2016-07-20T03:39:25.618Z,26.81
2016-07-20T03:40:24.924Z,26.81
2016-07-20T03:41:25.631Z,26.69
2016-07-20T03:42:25.691Z,26.75
2016-07-20T03:43:24.944Z,26.8
2016-07-20T03:44:24.950Z,26.75
2016-07-20T03:45:24.956Z,26.77
2016-07-20T03:46:24.962Z,26.73
2016-07-20T03:47:25.022Z,26.76
2016-07-20T03:48:24.979Z,26.76
2016-07-20T03:49:25.956Z,26.76
2016-07-20T03:50:24.993Z,26.76
2016-07-20T03:51:25.754Z,26.72
2016-07-20T03:52:25.005Z,26.72
2016-07-20T03:53:25.013Z,26.75
2016-07-20T03:54:25.024Z,26.75
2016-07-20T03:55:25.735Z,26.73
2016-07-20T03:56:25.035Z,26.76
2016-07-20T03:57:24.333Z,26.69
2016-07-20T03:58:25.051Z,26.7
2016-07-20T03:59:25.760Z,26.67
2016-07-20T04:00:26.832Z,26.76
2016-07-20T04:01:25.782Z,26.69
2016-07-20T04:02:25.782Z,26.66
2016-07-20T04:03:25.088Z,26.8
2016-07-20T04:04:25.090Z,26.75
2016-07-20T04:05:25.804Z,26.63
2016-07-20T04:06:25.814Z,26.75
2016-07-20T04:07:25.113Z,26.69
2016-07-20T04:08:25.831Z,26.76
2016-07-20T04:09:25.139Z,26.63
2016-07-20T04:10:25.136Z,26.67
2016-07-20T04:11:26.848Z,26.67
2016-07-20T04:12:25.855Z,26.76
2016-07-20T04:13:25.865Z,26.66
2016-07-20T04:14:24.455Z,26.7
2016-07-20T04:15:25.172Z,26.62
2016-07-20T04:16:25.886Z,26.73
2016-07-20T04:17:25.182Z,26.73
2016-07-20T04:18:25.910Z,26.67
2016-07-20T04:19:24.489Z,26.67
2016-07-20T04:20:25.914Z,26.67
2016-07-20T04:21:25.921Z,26.65
2016-07-20T04:22:26.003Z,26.69
2016-07-20T04:23:25.244Z,26.69
2016-07-20T04:24:25.941Z,26.66
2016-07-20T04:25:25.244Z,26.77
2016-07-20T04:26:25.957Z,26.63
2016-07-20T04:27:25.963Z,26.7
2016-07-20T04:28:25.261Z,26.67
2016-07-20T04:29:25.974Z,26.66
2016-07-20T04:30:25.998Z,26.7
2016-07-20T04:31:27.109Z,26.72
2016-07-20T04:32:25.290Z,26.7
2016-07-20T04:33:25.950Z,26.75
2016-07-20T04:34:26.012Z,26.77
2016-07-20T04:35:24.609Z,26.7
2016-07-20T04:36:25.319Z,26.67
2016-07-20T04:37:25.331Z,26.73
2016-07-20T04:38:26.043Z,26.63
2016-07-20T04:39:24.633Z,26.7
2016-07-20T04:40:26.057Z,26.7
2016-07-20T04:41:26.064Z,26.81
2016-07-20T04:42:26.888Z,26.8
2016-07-20T04:43:25.371Z,26.8
2016-07-20T04:44:25.771Z,26.75
2016-07-20T04:45:24.682Z,26.77
2016-07-20T04:46:26.103Z,26.82
2016-07-20T04:47:24.693Z,26.81
2016-07-20T04:48:24.700Z,26.82
2016-07-20T04:49:26.122Z,26.8
2016-07-20T04:50:25.429Z,26.8
2016-07-20T04:51:26.136Z,26.82
2016-07-20T04:52:24.732Z,26.87
2016-07-20T04:53:27.273Z,26.84
2016-07-20T04:54:26.161Z,26.87
2016-07-20T04:55:25.556Z,26.87
2016-07-20T04:56:24.772Z,26.95
2016-07-20T04:57:26.183Z,26.97
2016-07-20T04:58:25.482Z,26.94
2016-07-20T04:59:26.200Z,26.99
2016-07-20T05:00:25.498Z,27.09
2016-07-20T05:01:25.499Z,27.18
2016-07-20T05:02:24.804Z,27.09
2016-07-20T05:03:26.227Z,27.18
2016-07-20T05:04:25.524Z,27.12
2016-07-20T05:05:25.532Z,27.07
2016-07-20T05:06:26.497Z,27.21
2016-07-20T05:07:25.543Z,27.19
2016-07-20T05:08:26.262Z,27.25
2016-07-20T05:09:25.561Z,27.25
2016-07-20T05:10:26.281Z,27.37
2016-07-20T05:11:26.282Z,27.41
2016-07-20T05:12:26.292Z,27.28
2016-07-20T05:13:25.592Z,27.43
2016-07-20T05:14:26.308Z,27.37
2016-07-20T05:15:26.832Z,27.39
2016-07-20T05:16:25.627Z,27.46
2016-07-20T05:17:25.777Z,27.5
2016-07-20T05:18:26.339Z,27.49
2016-07-20T05:19:25.645Z,27.54
2016-07-20T05:20:26.364Z,27.59
2016-07-20T05:21:26.371Z,27.55
2016-07-20T05:22:25.674Z,27.6
2016-07-20T05:23:26.389Z,27.75
2016-07-20T05:24:25.691Z,27.69
2016-07-20T05:25:25.701Z,27.72
2016-07-20T05:26:26.912Z,27.77
2016-07-20T05:27:25.723Z,27.72
2016-07-20T05:28:25.779Z,27.82
2016-07-20T05:29:26.445Z,27.85
2016-07-20T05:30:26.456Z,27.82
2016-07-20T05:31:25.767Z,27.92
2016-07-20T05:32:25.774Z,27.87
2016-07-20T05:33:25.783Z,27.87
2016-07-20T05:34:26.503Z,27.9
2016-07-20T05:35:25.802Z,27.99
2016-07-20T05:36:25.814Z,28.04
2016-07-20T05:37:27.578Z,28.04
2016-07-20T05:38:25.127Z,28.03
2016-07-20T05:39:26.551Z,28.07
2016-07-20T05:40:25.910Z,28.07
2016-07-20T05:41:25.163Z,28.06
2016-07-20T05:42:25.170Z,28.12
2016-07-20T05:43:25.182Z,28.15
2016-07-20T05:44:25.902Z,28.14
2016-07-20T05:45:26.613Z,28.07
2016-07-20T05:46:25.921Z,28.21
2016-07-20T05:47:25.930Z,28.21
2016-07-20T05:48:26.842Z,28.19
2016-07-20T05:49:25.962Z,28.34
2016-07-20T05:50:26.689Z,28.31
2016-07-20T05:51:26.684Z,28.39
2016-07-20T05:52:25.991Z,28.33
2016-07-20T05:53:25.996Z,28.36
2016-07-20T05:54:25.302Z,28.51
2016-07-20T05:55:25.363Z,28.41
2016-07-20T05:56:26.034Z,28.43
2016-07-20T05:57:26.045Z,28.59
2016-07-20T05:58:26.050Z,28.52
2016-07-20T05:59:27.573Z,28.44
2016-07-20T06:00:26.075Z,28.61
2016-07-20T06:01:26.085Z,28.55
2016-07-20T06:02:26.807Z,28.61
2016-07-20T06:03:26.115Z,28.59
2016-07-20T06:04:26.121Z,28.66
2016-07-20T06:05:26.841Z,28.62
2016-07-20T06:06:25.443Z,28.67
2016-07-20T06:07:26.155Z,28.68
2016-07-20T06:08:26.183Z,28.68
2016-07-20T06:09:25.475Z,28.77
2016-07-20T06:10:26.837Z,28.78
2016-07-20T06:11:26.201Z,28.88
2016-07-20T06:12:26.919Z,28.86
2016-07-20T06:13:25.517Z,28.8
2016-07-20T06:14:26.234Z,28.88
2016-07-20T06:15:26.956Z,28.9
2016-07-20T06:16:26.259Z,28.92
2016-07-20T06:17:26.274Z,28.96
2016-07-20T06:18:26.994Z,29.06
2016-07-20T06:19:27.003Z,28.95
2016-07-20T06:20:27.014Z,29.04
2016-07-20T06:21:27.734Z,29.12
2016-07-20T06:22:26.327Z,29.15
2016-07-20T06:23:27.049Z,29.08
2016-07-20T06:24:26.359Z,29.09
2016-07-20T06:25:26.365Z,29.18
2016-07-20T06:26:26.376Z,29.08
2016-07-20T06:27:26.392Z,29.23
2016-07-20T06:28:27.107Z,29.16
2016-07-20T06:29:26.414Z,29.19
2016-07-20T06:30:26.426Z,29.19
2016-07-20T06:31:27.145Z,29.21
2016-07-20T06:32:27.701Z,29.12
2016-07-20T06:33:26.459Z,29.19
2016-07-20T06:34:27.280Z,29.15
2016-07-20T06:35:26.497Z,29.31
2016-07-20T06:36:26.497Z,29.27
2016-07-20T06:37:26.512Z,29.28
2016-07-20T06:38:26.519Z,29.24
2016-07-20T06:39:26.537Z,29.27
2016-07-20T06:40:26.546Z,29.31
2016-07-20T06:41:25.850Z,29.36
2016-07-20T06:42:26.572Z,29.31
2016-07-20T06:43:27.789Z,29.37
2016-07-20T06:44:27.348Z,29.36
2016-07-20T06:45:27.407Z,29.41
2016-07-20T06:46:25.916Z,29.42
2016-07-20T06:47:25.925Z,29.34
2016-07-20T06:48:27.351Z,29.3
2016-07-20T06:49:26.658Z,29.43
2016-07-20T06:50:26.897Z,29.42
2016-07-20T06:51:27.388Z,29.43
2016-07-20T06:52:26.694Z,29.46
2016-07-20T06:53:26.706Z,29.48
2016-07-20T06:54:28.052Z,29.53
2016-07-20T06:55:27.445Z,29.45
2016-07-20T06:56:26.899Z,29.57
2016-07-20T06:57:26.756Z,29.55
2016-07-20T06:58:26.764Z,29.53
2016-07-20T06:59:26.071Z,29.57
2016-07-20T07:00:26.792Z,29.58
2016-07-20T07:01:26.099Z,29.6
2016-07-20T07:02:26.816Z,29.57
2016-07-20T07:03:26.826Z,29.63
2016-07-20T07:04:27.549Z,29.64
2016-07-20T07:05:28.223Z,29.51
2016-07-20T07:06:27.585Z,29.49
2016-07-20T07:07:27.777Z,29.52
2016-07-20T07:08:26.894Z,29.43
2016-07-20T07:09:26.911Z,29.46
2016-07-20T07:10:27.636Z,29.48
2016-07-20T07:11:26.935Z,29.6
2016-07-20T07:12:26.233Z,29.61
2016-07-20T07:13:26.966Z,29.8
2016-07-20T07:14:27.674Z,29.78
2016-07-20T07:15:26.991Z,29.85
2016-07-20T07:16:28.211Z,29.76
2016-07-20T07:17:26.296Z,29.76
2016-07-20T07:18:27.873Z,29.73
2016-07-20T07:19:27.740Z,29.71
2016-07-20T07:20:27.043Z,29.78
2016-07-20T07:21:27.764Z,29.82
2016-07-20T07:22:26.367Z,29.74
2016-07-20T07:23:27.084Z,29.83
2016-07-20T07:24:27.806Z,29.86
2016-07-20T07:25:26.400Z,29.89
2016-07-20T07:26:27.829Z,29.92
2016-07-20T07:27:28.553Z,29.89
2016-07-20T07:28:27.205Z,29.86
2016-07-20T07:29:27.562Z,29.82
2016-07-20T07:30:27.880Z,29.86
2016-07-20T07:31:27.185Z,29.85
2016-07-20T07:32:27.906Z,29.89
2016-07-20T07:33:27.210Z,29.9
2016-07-20T07:34:27.930Z,29.86
2016-07-20T07:35:27.946Z,29.8
2016-07-20T07:36:27.250Z,29.87
2016-07-20T07:37:27.263Z,29.89
2016-07-20T07:38:29.018Z,29.9
2016-07-20T07:39:27.286Z,29.87
2016-07-20T07:40:28.557Z,29.89
2016-07-20T07:41:27.312Z,29.8
2016-07-20T07:42:26.618Z,29.76
2016-07-20T07:43:28.046Z,29.89
2016-07-20T07:44:26.649Z,29.86
2016-07-20T07:45:28.068Z,29.63
2016-07-20T07:46:27.378Z,29.28
2016-07-20T07:47:27.386Z,29.21
2016-07-20T07:48:27.398Z,29.18
2016-07-20T07:49:27.412Z,29.11
2016-07-20T07:50:27.421Z,29
2016-07-20T07:51:28.638Z,28.96
2016-07-20T07:52:26.744Z,29.14
2016-07-20T07:53:28.157Z,29.12
2016-07-20T07:54:27.457Z,29.12
2016-07-20T07:55:27.466Z,29.12
2016-07-20T07:56:28.182Z,29.14
2016-07-20T07:57:28.234Z,28.98
2016-07-20T07:58:28.252Z,28.89
2016-07-20T07:59:27.497Z,28.81
2016-07-20T08:00:27.509Z,28.71
2016-07-20T08:01:27.511Z,28.7
2016-07-20T08:02:28.473Z,28.62
2016-07-20T08:03:27.534Z,28.55
2016-07-20T08:04:27.538Z,28.59
2016-07-20T08:05:27.546Z,28.62
2016-07-20T08:06:28.265Z,28.68
2016-07-20T08:07:27.567Z,28.7
2016-07-20T08:08:28.277Z,28.71
2016-07-20T08:09:27.582Z,28.76
2016-07-20T08:10:28.295Z,28.85
2016-07-20T08:11:27.598Z,28.86
2016-07-20T08:12:27.607Z,28.88
2016-07-20T08:13:28.668Z,28.78
2016-07-20T08:14:27.620Z,28.68
2016-07-20T08:15:28.343Z,28.61
2016-07-20T08:16:26.937Z,28.58
2016-07-20T08:17:28.356Z,28.54
2016-07-20T08:18:27.027Z,28.67
2016-07-20T08:19:28.376Z,28.66
2016-07-20T08:20:28.384Z,28.58
2016-07-20T08:21:27.683Z,28.56
2016-07-20T08:22:28.404Z,28.52
2016-07-20T08:23:27.703Z,28.48
2016-07-20T08:24:28.826Z,28.49
2016-07-20T08:25:27.010Z,28.49
2016-07-20T08:26:27.722Z,28.52
2016-07-20T08:27:27.740Z,28.58
2016-07-20T08:28:28.449Z,28.58
2016-07-20T08:29:27.747Z,28.56
2016-07-20T08:30:27.759Z,28.51
2016-07-20T08:31:27.768Z,28.52
2016-07-20T08:32:27.774Z,28.55
2016-07-20T08:33:28.496Z,28.71
2016-07-20T08:34:27.092Z,28.76
2016-07-20T08:35:29.675Z,28.7
2016-07-20T08:36:27.809Z,28.61
2016-07-20T08:37:27.813Z,28.64
2016-07-20T08:38:27.825Z,28.68
2016-07-20T08:39:28.534Z,28.64
2016-07-20T08:40:27.834Z,28.68
2016-07-20T08:41:28.555Z,28.68
2016-07-20T08:42:27.142Z,28.62
2016-07-20T08:43:27.891Z,28.56
2016-07-20T08:44:28.568Z,28.46
2016-07-20T08:45:28.579Z,28.39
2016-07-20T08:46:27.167Z,28.36
2016-07-20T08:47:28.587Z,28.27
2016-07-20T08:48:27.891Z,28.18
2016-07-20T08:49:28.602Z,28.19
2016-07-20T08:50:27.908Z,28.15
2016-07-20T08:51:27.922Z,28.14
2016-07-20T08:52:27.916Z,28.09
2016-07-20T08:53:28.644Z,28.09
2016-07-20T08:54:27.227Z,28.12
2016-07-20T08:55:28.651Z,28.11
2016-07-20T08:56:27.247Z,28.18
2016-07-20T08:57:27.364Z,28.33
2016-07-20T08:58:28.016Z,28.36
2016-07-20T08:59:27.504Z,28.64
2016-07-20T09:00:27.981Z,28.68
2016-07-20T09:01:27.991Z,28.68
2016-07-20T09:02:28.002Z,28.52
2016-07-20T09:03:28.716Z,28.52
2016-07-20T09:04:27.309Z,28.4
2016-07-20T09:05:28.022Z,28.34
2016-07-20T09:06:28.736Z,28.48
2016-07-20T09:07:28.744Z,28.4
2016-07-20T09:08:28.044Z,28.48
2016-07-20T09:09:28.763Z,28.51
2016-07-20T09:10:27.356Z,28.48
2016-07-20T09:11:28.777Z,28.34
2016-07-20T09:12:28.786Z,28.29
2016-07-20T09:13:28.087Z,28.21
2016-07-20T09:14:28.095Z,28.33
2016-07-20T09:15:28.822Z,28.31
2016-07-20T09:16:28.112Z,28.52
2016-07-20T09:17:28.119Z,28.58
2016-07-20T09:18:28.834Z,28.61
2016-07-20T09:19:28.135Z,28.59
2016-07-20T09:20:27.439Z,28.54
2016-07-20T09:21:28.863Z,28.4
2016-07-20T09:22:28.158Z,28.51
2016-07-20T09:23:28.182Z,28.55
2016-07-20T09:24:27.470Z,28.49
2016-07-20T09:25:28.182Z,28.55
2016-07-20T09:26:28.906Z,28.64
2016-07-20T09:27:28.904Z,28.67
2016-07-20T09:28:28.258Z,28.67
2016-07-20T09:29:28.973Z,28.68
2016-07-20T09:30:28.222Z,28.76
2016-07-20T09:31:27.535Z,28.7
2016-07-20T09:32:28.237Z,28.56
2016-07-20T09:33:28.955Z,28.56
2016-07-20T09:34:28.963Z,29.14
2016-07-20T09:35:28.967Z,29.18
2016-07-20T09:36:27.563Z,29.19
2016-07-20T09:37:28.979Z,29.08
2016-07-20T09:38:28.281Z,28.85
2016-07-20T09:39:28.591Z,28.64
2016-07-20T09:40:28.294Z,28.66
2016-07-20T09:41:28.246Z,28.55
2016-07-20T09:42:29.016Z,28.46
2016-07-20T09:43:28.316Z,28.4
2016-07-20T09:44:27.621Z,28.22
2016-07-20T09:45:28.333Z,28.25
2016-07-20T09:46:28.337Z,28.33
2016-07-20T09:47:29.054Z,28.24
2016-07-20T09:48:29.061Z,28.71
2016-07-20T09:49:27.655Z,28.98
2016-07-20T09:50:28.759Z,29.02
2016-07-20T09:51:29.084Z,28.86
2016-07-20T09:52:28.432Z,28.77
2016-07-20T09:53:27.684Z,28.58
2016-07-20T09:54:29.115Z,28.68
2016-07-20T09:55:27.698Z,28.59
2016-07-20T09:56:28.418Z,28.49
2016-07-20T09:57:29.175Z,28.33
2016-07-20T09:58:28.427Z,28.54
2016-07-20T09:59:28.493Z,28.66
2016-07-20T10:00:28.443Z,28.86
2016-07-20T10:01:30.104Z,28.81
2016-07-20T10:02:29.218Z,28.8
2016-07-20T10:03:28.810Z,28.85
2016-07-20T10:04:28.472Z,28.88
2016-07-20T10:05:28.474Z,28.85
2016-07-20T10:06:28.485Z,28.8
2016-07-20T10:07:28.491Z,28.8
2016-07-20T10:08:28.502Z,28.98
2016-07-20T10:09:28.505Z,29.19
2016-07-20T10:10:27.803Z,29.09
2016-07-20T10:11:28.518Z,28.89
2016-07-20T10:12:29.617Z,28.89
2016-07-20T10:13:29.238Z,28.8
2016-07-20T10:14:29.991Z,29
2016-07-20T10:15:29.249Z,29
2016-07-20T10:16:29.255Z,28.96
2016-07-20T10:17:27.851Z,28.88
2016-07-20T10:18:27.854Z,28.67
2016-07-20T10:19:27.875Z,28.7
2016-07-20T10:20:29.286Z,28.61
2016-07-20T10:21:29.306Z,28.48
2016-07-20T10:22:27.889Z,28.49
2016-07-20T10:23:29.952Z,28.41
2016-07-20T10:24:28.609Z,28.51
2016-07-20T10:25:29.919Z,28.61
2016-07-20T10:26:29.332Z,28.7
2016-07-20T10:27:29.344Z,28.59
2016-07-20T10:28:29.346Z,28.64
2016-07-20T10:29:29.354Z,28.68
2016-07-20T10:30:29.363Z,28.59
2016-07-20T10:31:28.675Z,28.64
2016-07-20T10:32:29.379Z,28.62
2016-07-20T10:33:29.389Z,28.95
2016-07-20T10:34:30.330Z,29.09
2016-07-20T10:35:29.399Z,29.09
2016-07-20T10:36:27.988Z,28.92
2016-07-20T10:37:28.699Z,28.67
2016-07-20T10:38:28.710Z,28.74
2016-07-20T10:39:28.715Z,28.68
2016-07-20T10:40:28.724Z,28.64
2016-07-20T10:41:28.747Z,28.74
2016-07-20T10:42:29.448Z,28.89
2016-07-20T10:43:28.753Z,28.85
2016-07-20T10:44:28.765Z,29.04
2016-07-20T10:45:29.462Z,29.06
2016-07-20T10:46:28.057Z,29.26
2016-07-20T10:47:30.605Z,29.16
2016-07-20T10:48:28.783Z,29.24
2016-07-20T10:49:29.492Z,29.19
2016-07-20T10:50:28.819Z,28.96
2016-07-20T10:51:29.506Z,28.81
2016-07-20T10:52:28.811Z,28.61
2016-07-20T10:53:29.528Z,28.54
2016-07-20T10:54:43.698Z,29.04
2016-07-20T10:55:28.827Z,29.31
2016-07-20T10:56:28.886Z,29.48
2016-07-20T10:57:28.842Z,29.42
2016-07-20T10:58:28.857Z,29.37
2016-07-20T10:59:28.949Z,29.48
2016-07-20T11:00:29.567Z,29.48
2016-07-20T11:01:28.159Z,29.14
2016-07-20T11:02:29.799Z,29.18
2016-07-20T11:03:28.172Z,29.31
2016-07-20T11:04:29.595Z,29.06
2016-07-20T11:05:28.246Z,28.92
2016-07-20T11:06:28.900Z,28.74
2016-07-20T11:07:29.762Z,28.64
2016-07-20T11:08:28.913Z,28.93
2016-07-20T11:09:29.641Z,29.26
2016-07-20T11:10:29.636Z,29.49
2016-07-20T11:11:29.640Z,29.24
2016-07-20T11:12:28.937Z,29
2016-07-20T11:13:28.243Z,28.89
2016-07-20T11:14:28.953Z,28.85
2016-07-20T11:15:29.675Z,29.36
2016-07-20T11:16:28.970Z,29.33
2016-07-20T11:17:29.680Z,29.24
2016-07-20T11:18:29.957Z,29.24
2016-07-20T11:19:28.990Z,29.05
2016-07-20T11:20:28.294Z,28.98
2016-07-20T11:21:29.709Z,28.98
2016-07-20T11:22:29.011Z,29.16
2016-07-20T11:23:29.017Z,29.27
2016-07-20T11:24:29.023Z,29.63
2016-07-20T11:25:29.730Z,29.68
2016-07-20T11:26:29.741Z,29.45
2016-07-20T11:27:29.039Z,29.61
2016-07-20T11:28:28.339Z,29.49
2016-07-20T11:29:29.445Z,29.18
2016-07-20T11:30:29.767Z,29.05
2016-07-20T11:31:29.771Z,28.86
2016-07-20T11:32:28.365Z,29.14
2016-07-20T11:33:29.785Z,29.28
2016-07-20T11:34:29.086Z,29.48
2016-07-20T11:35:28.384Z,29.42
2016-07-20T11:36:29.817Z,29.18
2016-07-20T11:37:28.395Z,29.06
2016-07-20T11:38:29.106Z,29.08
2016-07-20T11:39:29.824Z,29
2016-07-20T11:40:29.819Z,29.48
2016-07-20T11:41:29.126Z,29.24
2016-07-20T11:42:29.136Z,29.11
2016-07-20T11:43:29.854Z,28.93
2016-07-20T11:44:29.899Z,28.81
2016-07-20T11:45:29.157Z,28.7
2016-07-20T11:46:28.467Z,28.68
2016-07-20T11:47:29.166Z,28.67
2016-07-20T11:48:29.178Z,28.7
2016-07-20T11:49:29.183Z,28.55
2016-07-20T11:50:29.196Z,28.58
2016-07-20T11:51:29.951Z,28.55
2016-07-20T11:52:29.919Z,28.54
2016-07-20T11:53:28.815Z,28.49
2016-07-20T11:54:29.229Z,28.49
2016-07-20T11:55:28.530Z,28.56
2016-07-20T11:56:29.243Z,28.41
2016-07-20T11:57:29.257Z,28.52
2016-07-20T11:58:29.965Z,28.46
2016-07-20T11:59:30.029Z,28.55
2016-07-20T12:00:29.983Z,28.64
2016-07-20T12:01:29.339Z,28.62
2016-07-20T12:02:30.246Z,28.71
2016-07-20T12:03:30.014Z,28.89
2016-07-20T12:04:29.104Z,29.15
2016-07-20T12:05:28.609Z,29.3
2016-07-20T12:06:30.026Z,29.14
2016-07-20T12:07:28.623Z,28.95
2016-07-20T12:08:29.343Z,28.88
2016-07-20T12:09:29.338Z,29.21
2016-07-20T12:10:29.347Z,29.18
2016-07-20T12:11:30.064Z,29.02
2016-07-20T12:12:29.363Z,28.88
2016-07-20T12:13:30.353Z,29.23
2016-07-20T12:14:28.680Z,29.06
2016-07-20T12:15:29.384Z,29.19
2016-07-20T12:16:30.094Z,29.12
2016-07-20T12:17:30.103Z,29.12
2016-07-20T12:18:29.403Z,29.14
2016-07-20T12:19:29.410Z,29.02
2016-07-20T12:20:29.413Z,28.96
2016-07-20T12:21:28.783Z,29.02
2016-07-20T12:22:30.134Z,28.98
2016-07-20T12:23:28.728Z,29.14
2016-07-20T12:24:30.811Z,29.36
2016-07-20T12:25:29.451Z,29.53
2016-07-20T12:26:30.409Z,29.37
2016-07-20T12:27:30.159Z,29.42
2016-07-20T12:28:29.464Z,29.64
2016-07-20T12:29:29.468Z,29.71
2016-07-20T12:30:30.183Z,29.64
2016-07-20T12:31:29.482Z,29.48
2016-07-20T12:32:28.795Z,29.28
2016-07-20T12:33:30.196Z,29.28
2016-07-20T12:34:29.492Z,29.21
2016-07-20T12:35:31.361Z,29
2016-07-20T12:36:29.511Z,28.9
2016-07-20T12:37:28.809Z,28.8
2016-07-20T12:38:30.228Z,28.78
2016-07-20T12:39:28.822Z,28.73
2016-07-20T12:40:29.536Z,28.9
2016-07-20T12:41:30.252Z,29
2016-07-20T12:42:30.259Z,28.95
2016-07-20T12:43:29.555Z,29.02
2016-07-20T12:44:29.008Z,28.9
2016-07-20T12:45:30.286Z,28.88
2016-07-20T12:46:29.584Z,28.81
2016-07-20T12:47:30.298Z,28.71
2016-07-20T12:48:30.423Z,28.98
2016-07-20T12:49:28.896Z,28.86
2016-07-20T12:50:30.317Z,29.12
2016-07-20T12:51:29.722Z,29.14
2016-07-20T12:52:30.332Z,29.16
2016-07-20T12:53:30.340Z,29
2016-07-20T12:54:29.639Z,28.81
2016-07-20T12:55:30.706Z,28.9